Time;durP1;ratioP1;P1;durP2;ratioP2;P2;SDS_P1;SDS_P2;PMS_P1;PMS_P2;Temp;Humidity;BMP_temperature;BMP_pressure;BME280_temperature;BME280_humidity;BME280_pressure;Samples;Min_cycle;Max_cycle;Signal;HPM_P1;HPM_P2
2022/11/12 00:00:02;;;;;;;20.40;14.82;;;;;;;;;;5034812;28;20033;-86
2022/11/12 00:02:28;;;;;;;20.50;15.00;;;;;;;;;;5060150;28;20026;-86
2022/11/12 00:04:54;;;;;;;18.60;14.20;;;;;;;;;;5059353;28;20021;-86
2022/11/12 00:07:20;;;;;;;20.23;14.73;;;;;;;;;;5041905;28;20051;-86
2022/11/12 00:09:46;;;;;;;23.17;16.10;;;;;;;;;;5041647;28;20085;-86
2022/11/12 00:12:12;;;;;;;25.05;15.13;;;;;;;;;;5059720;28;20026;-86
2022/11/12 00:14:38;;;;;;;23.42;16.13;;;;;;;;;;5041761;28;20030;-86
2022/11/12 00:17:04;;;;;;;22.70;15.80;;;;;;;;;;5058559;28;20041;-87
2022/11/12 00:19:30;;;;;;;21.45;14.90;;;;;;;;;;5058906;28;20042;-86
2022/11/12 00:21:56;;;;;;;24.27;14.15;;;;;;;;;;5057296;28;20017;-86
2022/11/12 00:24:22;;;;;;;21.55;15.02;;;;;;;;;;5043023;28;20055;-87
2022/11/12 00:26:48;;;;;;;19.67;13.93;;;;;;;;;;5055541;28;20028;-87
2022/11/12 00:29:14;;;;;;;18.85;14.13;;;;;;;;;;5039462;28;20040;-86
2022/11/12 00:31:40;;;;;;;20.83;15.00;;;;;;;;;;5041502;28;20033;-86
2022/11/12 00:34:06;;;;;;;22.65;15.32;;;;;;;;;;5025318;28;20113;-86
2022/11/12 00:36:33;;;;;;;22.33;14.98;;;;;;;;;;5057615;28;20034;-86
2022/11/12 00:38:59;;;;;;;25.10;16.08;;;;;;;;;;5058398;28;20052;-86
2022/11/12 00:41:25;;;;;;;22.05;15.27;;;;;;;;;;5059889;28;20030;-87
2022/11/12 00:43:51;;;;;;;24.40;16.23;;;;;;;;;;5024820;28;20038;-86
2022/11/12 00:46:17;;;;;;;21.35;15.90;;;;;;;;;;5040692;28;20037;-86
2022/11/12 00:48:43;;;;;;;24.15;17.13;;;;;;;;;;5057480;28;20052;-87
2022/11/12 00:51:09;;;;;;;23.80;18.08;;;;;;;;;;5057697;28;20025;-86
2022/11/12 00:53:35;;;;;;;26.05;18.15;;;;;;;;;;5058241;28;20039;-86
2022/11/12 00:56:01;;;;;;;26.60;17.63;;;;;;;;;;5057758;28;20033;-86
2022/11/12 00:58:29;;;;;;;23.88;17.55;;;;;;;;;;5059403;28;20044;-87
2022/11/12 01:00:55;;;;;;;29.77;17.52;;;;;;;;;;5058880;28;20104;-86
2022/11/12 01:03:21;;;;;;;24.85;17.73;;;;;;;;;;5040521;28;20033;-87
2022/11/12 01:05:47;;;;;;;24.80;17.38;;;;;;;;;;5058008;28;20069;-86
2022/11/12 01:08:13;;;;;;;28.15;18.10;;;;;;;;;;5058874;28;20029;-86
2022/11/12 01:10:39;;;;;;;27.58;18.52;;;;;;;;;;5027505;28;20065;-87
2022/11/12 01:13:05;;;;;;;26.35;17.20;;;;;;;;;;5039299;28;20045;-86
2022/11/12 01:15:31;;;;;;;28.15;18.00;;;;;;;;;;5058789;28;20033;-87
2022/11/12 01:17:57;;;;;;;26.80;18.20;;;;;;;;;;5054742;28;20038;-87
2022/11/12 01:20:23;;;;;;;23.52;17.15;;;;;;;;;;5057626;28;20059;-86
2022/11/12 01:22:49;;;;;;;27.45;18.25;;;;;;;;;;5039265;28;20029;-86
2022/11/12 01:25:15;;;;;;;23.10;16.63;;;;;;;;;;5038907;28;20049;-86
2022/11/12 01:27:41;;;;;;;27.40;16.50;;;;;;;;;;5057424;28;20058;-86
2022/11/12 01:30:08;;;;;;;23.80;16.95;;;;;;;;;;5058113;28;20030;-86
2022/11/12 01:32:35;;;;;;;23.92;15.68;;;;;;;;;;5040049;28;20046;-87
2022/11/12 01:35:01;;;;;;;21.42;15.30;;;;;;;;;;5056377;28;20033;-86
2022/11/12 01:37:28;;;;;;;19.98;14.40;;;;;;;;;;5051642;28;20033;-84
2022/11/12 01:39:54;;;;;;;20.25;15.15;;;;;;;;;;5032171;28;20041;-83
2022/11/12 01:42:20;;;;;;;23.85;15.50;;;;;;;;;;5040770;28;20071;-85
2022/11/12 01:44:46;;;;;;;21.05;14.90;;;;;;;;;;5031344;28;20052;-85
2022/11/12 01:47:18;;;;;;;22.60;15.35;;;;;;;;;;5049021;28;20056;-86
2022/11/12 01:50:00;;;;;;;24.23;15.05;;;;;;;;;;5031513;28;20061;-86
2022/11/12 01:52:37;;;;;;;21.73;14.68;;;;;;;;;;5026034;28;20063;-86
2022/11/12 01:55:12;;;;;;;23.13;16.58;;;;;;;;;;5041769;28;20047;-86
2022/11/12 01:57:41;;;;;;;26.90;16.00;;;;;;;;;;5048429;28;20049;-85
2022/11/12 02:00:09;;;;;;;25.25;16.38;;;;;;;;;;5027542;28;20053;-85
2022/11/12 02:02:36;;;;;;;23.13;15.38;;;;;;;;;;5043910;28;20109;-86
2022/11/12 02:05:04;;;;;;;22.08;15.02;;;;;;;;;;5045852;28;20041;-86
2022/11/12 02:07:31;;;;;;;20.77;15.25;;;;;;;;;;5027638;28;20049;-86
2022/11/12 02:10:00;;;;;;;19.10;13.45;;;;;;;;;;5040911;28;20064;-86
2022/11/12 02:15:11;;;;;;;20.33;13.60;;;;;;;;;;5039513;28;20061;-85
2022/11/12 02:17:37;;;;;;;22.50;15.15;;;;;;;;;;5019828;28;20053;-85
2022/11/12 02:20:03;;;;;;;19.77;13.88;;;;;;;;;;5002321;28;20045;-86
2022/11/12 02:22:29;;;;;;;22.10;12.98;;;;;;;;;;5036525;28;20046;-86
2022/11/12 02:24:55;;;;;;;23.35;15.23;;;;;;;;;;5012230;28;20053;-85
2022/11/12 02:27:22;;;;;;;25.77;15.40;;;;;;;;;;5017677;28;20439;-86
2022/11/12 02:29:48;;;;;;;19.60;13.35;;;;;;;;;;5037330;28;20501;-86
2022/11/12 02:32:14;;;;;;;20.05;12.13;;;;;;;;;;5037553;28;20492;-86
2022/11/12 02:34:41;;;;;;;21.40;14.18;;;;;;;;;;5037919;28;20046;-86
2022/11/12 02:37:07;;;;;;;22.17;14.20;;;;;;;;;;5018513;28;20054;-86
2022/11/12 02:39:33;;;;;;;20.80;13.65;;;;;;;;;;5017326;28;20052;-85
2022/11/12 02:41:59;;;;;;;23.58;14.18;;;;;;;;;;5032227;28;20488;-86
2022/11/12 02:44:25;;;;;;;21.73;14.68;;;;;;;;;;5022190;28;20049;-86
2022/11/12 02:46:51;;;;;;;22.35;14.07;;;;;;;;;;5024734;28;20048;-85
2022/11/12 02:49:17;;;;;;;26.42;14.57;;;;;;;;;;5052854;28;20034;-86
2022/11/12 02:51:43;;;;;;;25.25;14.30;;;;;;;;;;5042333;28;20045;-86
2022/11/12 02:54:09;;;;;;;21.83;14.27;;;;;;;;;;5021565;28;20057;-86
2022/11/12 02:56:35;;;;;;;20.88;13.00;;;;;;;;;;5043536;28;20045;-85
2022/11/12 02:59:02;;;;;;;24.35;14.65;;;;;;;;;;5028143;28;20061;-86
2022/11/12 03:01:28;;;;;;;24.30;13.95;;;;;;;;;;5045274;28;20037;-86
2022/11/12 03:03:54;;;;;;;21.60;14.43;;;;;;;;;;5024554;28;20048;-86
2022/11/12 03:06:20;;;;;;;22.13;13.35;;;;;;;;;;5044273;28;20049;-86
2022/11/12 03:08:46;;;;;;;23.85;13.68;;;;;;;;;;5012172;28;20049;-86
2022/11/12 03:11:13;;;;;;;21.27;13.13;;;;;;;;;;5049334;28;20041;-86
2022/11/12 03:13:39;;;;;;;20.75;12.93;;;;;;;;;;5041344;28;20093;-86
2022/11/12 03:16:06;;;;;;;19.52;11.40;;;;;;;;;;5052612;28;20050;-86
2022/11/12 03:18:32;;;;;;;19.40;12.15;;;;;;;;;;5039760;28;20515;-85
2022/11/12 03:20:58;;;;;;;18.90;11.70;;;;;;;;;;5025002;28;20051;-85
2022/11/12 03:23:25;;;;;;;20.58;12.20;;;;;;;;;;5040405;28;20049;-85
2022/11/12 03:25:51;;;;;;;20.02;12.35;;;;;;;;;;5025441;28;20041;-85
2022/11/12 03:28:17;;;;;;;18.38;10.85;;;;;;;;;;5015389;28;20058;-85
2022/11/12 03:30:44;;;;;;;17.63;11.68;;;;;;;;;;5041117;28;20050;-86
2022/11/12 03:33:12;;;;;;;19.63;11.32;;;;;;;;;;5041171;28;20041;-85
2022/11/12 03:35:39;;;;;;;24.25;12.20;;;;;;;;;;5038772;28;20050;-85
2022/11/12 03:38:05;;;;;;;18.73;11.27;;;;;;;;;;5038607;28;20417;-85
2022/11/12 03:40:32;;;;;;;18.80;11.43;;;;;;;;;;5038122;28;20049;-86
2022/11/12 03:42:58;;;;;;;18.50;10.88;;;;;;;;;;5022035;28;20045;-85
2022/11/12 03:45:24;;;;;;;18.67;10.60;;;;;;;;;;5020617;28;20397;-86
2022/11/12 03:47:55;;;;;;;16.65;10.25;;;;;;;;;;5041061;28;20068;-86
2022/11/12 03:50:22;;;;;;;29.20;11.77;;;;;;;;;;5005532;28;20420;-86
2022/11/12 03:52:49;;;;;;;57.40;12.38;;;;;;;;;;5042389;28;20049;-85
2022/11/12 03:55:16;;;;;;;17.13;10.55;;;;;;;;;;5021912;28;20046;-85
2022/11/12 03:57:43;;;;;;;16.77;9.63;;;;;;;;;;5022073;28;20038;-86
2022/11/12 04:00:10;;;;;;;18.88;10.60;;;;;;;;;;5017076;28;20128;-85
2022/11/12 04:02:36;;;;;;;20.63;10.70;;;;;;;;;;5041475;28;20048;-85
2022/11/12 04:10:41;;;;;;;18.10;11.10;;;;;;;;;;5024634;28;20037;-85
2022/11/12 04:21:49;;;;;;;27.98;11.73;;;;;;;;;;5020317;28;20049;-85
2022/11/12 04:26:21;;;;;;;16.30;9.55;;;;;;;;;;5022785;28;20057;-85
2022/11/12 04:26:59;;;;;;;16.70;9.70;;;;;;;;;;5020976;28;20053;-86
2022/11/12 04:32:09;;;;;;;21.65;10.10;;;;;;;;;;5035181;28;20508;-85
2022/11/12 04:34:35;;;;;;;21.75;10.82;;;;;;;;;;5036064;28;20041;-85
2022/11/12 04:37:02;;;;;;;38.05;11.25;;;;;;;;;;5039393;28;20044;-85
2022/11/12 04:39:28;;;;;;;19.45;9.52;;;;;;;;;;5038896;28;20045;-85
2022/11/12 04:44:58;;;;;;;14.48;8.68;;;;;;;;;;4923632;29;20063;-85
2022/11/12 04:47:25;;;;;;;17.13;9.95;;;;;;;;;;4938396;29;20056;-85
2022/11/12 04:49:51;;;;;;;16.10;9.35;;;;;;;;;;4925914;29;20051;-85
2022/11/12 04:52:17;;;;;;;18.33;9.75;;;;;;;;;;4922953;29;20058;-85
2022/11/12 04:54:43;;;;;;;25.85;10.75;;;;;;;;;;4939039;29;20044;-85
2022/11/12 04:57:09;;;;;;;31.67;11.13;;;;;;;;;;4942044;29;20078;-85
2022/11/12 04:59:35;;;;;;;58.03;10.90;;;;;;;;;;4941939;29;20059;-85
2022/11/12 05:02:01;;;;;;;58.60;12.18;;;;;;;;;;4937933;29;20432;-85
2022/11/12 05:04:28;;;;;;;40.75;10.98;;;;;;;;;;4940315;29;20048;-85
2022/11/12 05:06:56;;;;;;;34.42;11.15;;;;;;;;;;4944335;28;20055;-85
2022/11/12 05:09:23;;;;;;;134.18;13.88;;;;;;;;;;4940891;29;20538;-85
2022/11/12 05:11:50;;;;;;;77.65;12.05;;;;;;;;;;4938345;29;20099;-85
2022/11/12 05:14:16;;;;;;;84.30;11.40;;;;;;;;;;4941676;29;20491;-85
2022/11/12 05:16:43;;;;;;;34.92;9.93;;;;;;;;;;4941524;29;20091;-85
2022/11/12 05:19:09;;;;;;;19.23;10.38;;;;;;;;;;4940301;29;20459;-85
2022/11/12 05:24:20;;;;;;;22.33;10.32;;;;;;;;;;5020717;28;20112;-86
2022/11/12 05:26:46;;;;;;;33.88;11.90;;;;;;;;;;5035571;28;20051;-85
2022/11/12 05:29:12;;;;;;;24.27;11.25;;;;;;;;;;5036230;28;20463;-85
2022/11/12 05:31:38;;;;;;;23.90;12.32;;;;;;;;;;5031928;28;20037;-85
2022/11/12 05:34:04;;;;;;;27.40;11.65;;;;;;;;;;5043128;28;20038;-86
2022/11/12 05:36:30;;;;;;;44.78;11.93;;;;;;;;;;5058672;28;20045;-87
2022/11/12 05:38:56;;;;;;;22.00;11.30;;;;;;;;;;5038200;28;20034;-86
2022/11/12 05:41:22;;;;;;;19.55;10.93;;;;;;;;;;5034670;28;20044;-85
2022/11/12 05:43:48;;;;;;;18.00;10.70;;;;;;;;;;5035737;28;20045;-85
2022/11/12 05:46:14;;;;;;;17.55;10.60;;;;;;;;;;5033495;28;20052;-85
2022/11/12 05:48:40;;;;;;;19.77;10.20;;;;;;;;;;5023774;28;20041;-85
2022/11/12 05:51:06;;;;;;;16.10;10.50;;;;;;;;;;5020831;28;20488;-86
2022/11/12 05:53:32;;;;;;;20.73;11.93;;;;;;;;;;5015710;28;20042;-85
2022/11/12 05:56:01;;;;;;;16.52;10.73;;;;;;;;;;5034494;28;20476;-85
2022/11/12 05:58:27;;;;;;;23.33;12.82;;;;;;;;;;5033801;28;20091;-85
2022/11/12 06:00:53;;;;;;;22.15;11.43;;;;;;;;;;5016477;28;20049;-86
2022/11/12 06:03:19;;;;;;;19.40;10.65;;;;;;;;;;5031131;28;20045;-85
2022/11/12 06:05:45;;;;;;;18.35;10.55;;;;;;;;;;5016674;28;20045;-85
2022/11/12 06:08:11;;;;;;;18.95;11.32;;;;;;;;;;5016317;28;20049;-85
2022/11/12 06:10:37;;;;;;;24.15;12.05;;;;;;;;;;5015043;28;20412;-85
2022/11/12 06:13:03;;;;;;;23.05;11.68;;;;;;;;;;5033503;28;20034;-85
2022/11/12 06:15:29;;;;;;;23.63;12.88;;;;;;;;;;5014754;28;20045;-85
2022/11/12 06:17:56;;;;;;;23.35;13.00;;;;;;;;;;5008119;28;20162;-85
2022/11/12 06:20:22;;;;;;;24.38;12.75;;;;;;;;;;5014941;28;20489;-85
2022/11/12 06:22:49;;;;;;;24.63;12.73;;;;;;;;;;5002102;28;20104;-85
2022/11/12 06:25:15;;;;;;;40.40;19.02;;;;;;;;;;4999818;28;20488;-85
2022/11/12 06:27:41;;;;;;;84.22;27.15;;;;;;;;;;5016826;28;20049;-85
2022/11/12 06:30:08;;;;;;;98.70;24.73;;;;;;;;;;5031028;28;20037;-85
2022/11/12 06:32:34;;;;;;;49.65;16.58;;;;;;;;;;5035037;28;20037;-85
2022/11/12 06:35:00;;;;;;;76.38;13.10;;;;;;;;;;5011823;28;20042;-85
2022/11/12 06:37:26;;;;;;;86.75;14.23;;;;;;;;;;5012675;28;20049;-85
2022/11/12 06:39:52;;;;;;;29.88;14.38;;;;;;;;;;5016147;28;20064;-84
2022/11/12 06:42:18;;;;;;;24.30;14.40;;;;;;;;;;5033228;28;20425;-85
2022/11/12 06:44:44;;;;;;;26.77;11.73;;;;;;;;;;5033275;28;20072;-85
2022/11/12 06:47:10;;;;;;;25.73;11.82;;;;;;;;;;5034440;28;20101;-85
2022/11/12 06:49:36;;;;;;;20.88;11.30;;;;;;;;;;5017445;28;20049;-85
2022/11/12 06:52:03;;;;;;;38.05;12.35;;;;;;;;;;5015959;28;20045;-83
2022/11/12 06:54:29;;;;;;;88.97;13.52;;;;;;;;;;5032600;28;20046;-83
2022/11/12 06:56:55;;;;;;;92.47;14.20;;;;;;;;;;4996942;28;20453;-85
2022/11/12 06:59:21;;;;;;;32.97;13.15;;;;;;;;;;5013749;28;20065;-85
2022/11/12 07:01:47;;;;;;;27.73;12.43;;;;;;;;;;5029079;28;20038;-85
2022/11/12 07:04:13;;;;;;;58.45;13.75;;;;;;;;;;5011766;28;20455;-85
2022/11/12 07:06:39;;;;;;;49.13;14.02;;;;;;;;;;5010591;28;20129;-85
2022/11/12 07:09:05;;;;;;;23.90;13.02;;;;;;;;;;5012291;28;20053;-84
2022/11/12 07:11:31;;;;;;;67.85;17.90;;;;;;;;;;4998082;28;20557;-85
2022/11/12 07:13:57;;;;;;;89.15;15.85;;;;;;;;;;5011682;28;20072;-84
2022/11/12 07:16:23;;;;;;;112.40;16.73;;;;;;;;;;5034540;28;20460;-85
2022/11/12 07:18:49;;;;;;;40.55;12.35;;;;;;;;;;5015185;28;20050;-85
2022/11/12 07:21:17;;;;;;;40.08;11.02;;;;;;;;;;5034359;28;20087;-85
2022/11/12 07:23:43;;;;;;;24.92;10.02;;;;;;;;;;5015258;28;20054;-85
2022/11/12 07:26:14;;;;;;;30.52;10.80;;;;;;;;;;5013161;28;20052;-86
2022/11/12 07:28:40;;;;;;;25.83;10.85;;;;;;;;;;5014723;28;20107;-87
2022/11/12 07:31:10;;;;;;;18.88;11.25;;;;;;;;;;5039927;28;20038;-87
2022/11/12 07:33:36;;;;;;;19.00;11.38;;;;;;;;;;5020873;28;20128;-87
2022/11/12 07:36:03;;;;;;;17.35;10.93;;;;;;;;;;4997283;28;20184;-86
2022/11/12 07:38:30;;;;;;;16.67;11.25;;;;;;;;;;5019691;28;20053;-86
2022/11/12 07:41:04;;;;;;;16.60;10.93;;;;;;;;;;5020434;28;20042;-86
2022/11/12 07:43:31;;;;;;;21.10;13.52;;;;;;;;;;5039874;28;20041;-86
2022/11/12 07:46:01;;;;;;;26.35;17.95;;;;;;;;;;5021422;28;20050;-86
2022/11/12 07:48:28;;;;;;;20.77;14.23;;;;;;;;;;5020242;28;20489;-86
2022/11/12 07:51:01;;;;;;;20.85;13.43;;;;;;;;;;5038149;28;20101;-86
2022/11/12 07:53:27;;;;;;;18.20;13.13;;;;;;;;;;5020552;28;20050;-86
2022/11/12 07:55:58;;;;;;;20.92;13.35;;;;;;;;;;5021040;28;20500;-86
2022/11/12 07:58:24;;;;;;;21.10;12.48;;;;;;;;;;5034705;28;20048;-86
2022/11/12 08:00:51;;;;;;;20.50;13.02;;;;;;;;;;5019240;28;20025;-87
2022/11/12 08:03:17;;;;;;;16.83;11.30;;;;;;;;;;5026854;28;20472;-86
2022/11/12 08:05:43;;;;;;;17.58;11.85;;;;;;;;;;5019393;28;20397;-86
2022/11/12 08:08:10;;;;;;;19.13;12.02;;;;;;;;;;5038359;28;20381;-85
2022/11/12 08:10:36;;;;;;;16.80;12.02;;;;;;;;;;5013861;28;20045;-86
2022/11/12 08:13:02;;;;;;;16.70;11.27;;;;;;;;;;5020924;28;20064;-85
2022/11/12 08:15:28;;;;;;;17.30;12.55;;;;;;;;;;5036545;28;20042;-86
2022/11/12 08:17:54;;;;;;;19.10;12.48;;;;;;;;;;5037510;28;20057;-87
2022/11/12 08:20:20;;;;;;;17.00;11.82;;;;;;;;;;5037099;28;20049;-86
2022/11/12 08:22:47;;;;;;;17.98;12.50;;;;;;;;;;5019995;28;20092;-87
2022/11/12 08:25:13;;;;;;;21.15;13.18;;;;;;;;;;5044787;28;20468;-86
2022/11/12 08:27:39;;;;;;;18.17;13.32;;;;;;;;;;5042027;28;20049;-87
2022/11/12 08:30:05;;;;;;;18.83;13.45;;;;;;;;;;5038603;28;20073;-87
2022/11/12 08:32:31;;;;;;;21.45;13.82;;;;;;;;;;5042878;28;20045;-86
2022/11/12 08:34:57;;;;;;;18.52;13.38;;;;;;;;;;5038931;28;20076;-86
2022/11/12 08:37:23;;;;;;;22.85;14.15;;;;;;;;;;5036847;28;20045;-86
2022/11/12 08:39:49;;;;;;;18.75;13.93;;;;;;;;;;5020821;28;20049;-86
2022/11/12 08:42:15;;;;;;;18.70;13.63;;;;;;;;;;5025152;28;20057;-86
2022/11/12 08:44:42;;;;;;;23.55;14.45;;;;;;;;;;5025865;28;20052;-87
2022/11/12 08:47:08;;;;;;;23.35;14.05;;;;;;;;;;5048973;28;20049;-87
2022/11/12 08:49:34;;;;;;;21.23;13.32;;;;;;;;;;5049410;28;20047;-87
2022/11/12 08:52:00;;;;;;;20.40;13.45;;;;;;;;;;5030414;28;20124;-87
2022/11/12 08:54:26;;;;;;;22.95;13.98;;;;;;;;;;5028515;28;20041;-87
2022/11/12 08:56:52;;;;;;;20.30;14.02;;;;;;;;;;5028779;28;20064;-87
2022/11/12 08:59:18;;;;;;;19.00;13.60;;;;;;;;;;5019422;28;20489;-87
2022/11/12 09:01:44;;;;;;;21.42;14.38;;;;;;;;;;5036972;28;20497;-87
2022/11/12 09:04:10;;;;;;;23.15;13.82;;;;;;;;;;5020325;28;20076;-87
2022/11/12 09:06:36;;;;;;;21.38;13.73;;;;;;;;;;5021147;28;20054;-87
2022/11/12 09:09:02;;;;;;;21.17;13.23;;;;;;;;;;5020441;28;20069;-87
2022/11/12 09:11:28;;;;;;;23.95;13.68;;;;;;;;;;5039074;28;20056;-87
2022/11/12 09:13:54;;;;;;;19.10;13.50;;;;;;;;;;5018408;28;20052;-87
2022/11/12 09:16:20;;;;;;;19.95;13.45;;;;;;;;;;5034599;28;20472;-86
2022/11/12 09:18:47;;;;;;;21.10;14.60;;;;;;;;;;5019649;28;20081;-86
2022/11/12 09:21:13;;;;;;;19.45;14.60;;;;;;;;;;5034445;28;20057;-86
2022/11/12 09:23:39;;;;;;;20.05;14.38;;;;;;;;;;5034412;28;20397;-86
2022/11/12 09:26:05;;;;;;;19.45;14.23;;;;;;;;;;5033754;28;20053;-86
2022/11/12 09:28:31;;;;;;;21.95;14.38;;;;;;;;;;5033797;28;20045;-86
2022/11/12 09:30:58;;;;;;;20.52;13.88;;;;;;;;;;5014175;28;20096;-87
2022/11/12 09:33:29;;;;;;;21.48;14.30;;;;;;;;;;5033531;28;20099;-86
2022/11/12 09:35:55;;;;;;;;;;;;;;;;;;5017623;28;20048;-87
2022/11/12 09:38:21;;;;;;;24.27;16.17;;;;;;;;;;5033044;28;19925;-86
2022/11/12 09:40:53;;;;;;;25.27;15.75;;;;;;;;;;5039961;28;20132;-86
2022/11/12 09:43:25;;;;;;;18.67;14.55;;;;;;;;;;5016674;28;20111;-87
2022/11/12 09:45:51;;;;;;;21.80;15.45;;;;;;;;;;5032509;28;20119;-87
2022/11/12 09:48:19;;;;;;;22.35;16.05;;;;;;;;;;5033615;28;20417;-86
2022/11/12 09:50:59;;;;;;;19.73;13.80;;;;;;;;;;5035414;28;20053;-85
2022/11/12 09:53:38;;;;;;;23.23;14.75;;;;;;;;;;5017594;28;20037;-85
2022/11/12 09:56:07;;;;;;;20.63;15.02;;;;;;;;;;5017425;28;20436;-86
2022/11/12 09:58:33;;;;;;;22.10;14.82;;;;;;;;;;5035103;28;20052;-85
2022/11/12 10:01:03;;;;;;;20.50;15.38;;;;;;;;;;5032715;28;20045;-86
2022/11/12 10:03:37;;;;;;;21.13;14.50;;;;;;;;;;5029807;28;20041;-86
2022/11/12 10:06:12;;;;;;;18.38;13.80;;;;;;;;;;5034291;28;20393;-85
2022/11/12 10:09:00;;;;;;;19.23;15.32;;;;;;;;;;5034911;28;20046;-86
2022/11/12 10:14:29;;;;;;;21.20;15.07;;;;;;;;;;5032199;28;20049;-85
2022/11/12 10:17:02;;;;;;;24.27;15.38;;;;;;;;;;5015064;28;20073;-86
2022/11/12 10:19:34;;;;;;;23.45;15.98;;;;;;;;;;5033792;28;20041;-85
2022/11/12 10:22:26;;;;;;;21.48;15.85;;;;;;;;;;5036054;28;20088;-85
2022/11/12 10:24:52;;;;;;;20.38;15.75;;;;;;;;;;5028562;28;20025;-85
2022/11/12 10:27:20;;;;;;;20.90;14.88;;;;;;;;;;5034672;28;20155;-85
2022/11/12 10:29:59;;;;;;;21.60;15.35;;;;;;;;;;5005789;28;20054;-85
2022/11/12 10:32:25;;;;;;;22.55;14.60;;;;;;;;;;5015624;28;20054;-85
2022/11/12 10:34:51;;;;;;;20.38;14.55;;;;;;;;;;5013355;28;20457;-87
2022/11/12 10:37:27;;;;;;;21.85;15.07;;;;;;;;;;5035923;28;20038;-85
2022/11/12 10:39:53;;;;;;;20.25;15.10;;;;;;;;;;5015250;28;20132;-85
2022/11/12 10:42:20;;;;;;;22.88;15.45;;;;;;;;;;5018013;28;20102;-85
2022/11/12 10:44:46;;;;;;;23.17;15.23;;;;;;;;;;5037001;28;20053;-85
2022/11/12 10:47:15;;;;;;;19.92;15.40;;;;;;;;;;5019262;28;20050;-85
2022/11/12 10:49:41;;;;;;;21.83;14.60;;;;;;;;;;5036841;28;20057;-85
2022/11/12 10:52:19;;;;;;;39.42;16.65;;;;;;;;;;5037025;28;20220;-85
2022/11/12 10:54:45;;;;;;;23.23;15.27;;;;;;;;;;5019733;28;20038;-86
2022/11/12 10:57:25;;;;;;;20.63;15.75;;;;;;;;;;5015457;28;20075;-85
2022/11/12 11:00:07;;;;;;;25.20;16.23;;;;;;;;;;5018566;28;20061;-85
2022/11/12 11:02:34;;;;;;;36.28;17.60;;;;;;;;;;5023697;28;20046;-84
2022/11/12 11:05:00;;;;;;;31.92;16.88;;;;;;;;;;5036316;28;20049;-85
2022/11/12 11:07:26;;;;;;;25.67;15.55;;;;;;;;;;5038160;28;20049;-85
2022/11/12 11:10:00;;;;;;;23.95;15.80;;;;;;;;;;5040200;28;20109;-85
2022/11/12 11:12:27;;;;;;;24.75;15.77;;;;;;;;;;5038832;28;20601;-86
2022/11/12 11:15:09;;;;;;;22.55;15.25;;;;;;;;;;5032516;28;20057;-86
2022/11/12 11:17:35;;;;;;;23.63;15.25;;;;;;;;;;5039297;28;20061;-85
2022/11/12 11:20:01;;;;;;;26.80;15.23;;;;;;;;;;5021751;28;20547;-86
2022/11/12 11:22:42;;;;;;;21.27;15.35;;;;;;;;;;5023934;28;20497;-86
2022/11/12 11:25:11;;;;;;;22.08;13.73;;;;;;;;;;5025178;28;20107;-85
2022/11/12 11:27:46;;;;;;;17.95;12.93;;;;;;;;;;5043365;28;20045;-85
2022/11/12 11:30:14;;;;;;;17.52;13.30;;;;;;;;;;5042193;28;20057;-85
2022/11/12 11:32:52;;;;;;;17.85;12.98;;;;;;;;;;5037866;28;20053;-85
2022/11/12 11:35:37;;;;;;;21.40;14.10;;;;;;;;;;5038082;28;20048;-86
2022/11/12 11:38:15;;;;;;;20.35;13.93;;;;;;;;;;5040152;28;20033;-86
2022/11/12 11:40:50;;;;;;;20.95;13.80;;;;;;;;;;5021605;28;20449;-86
2022/11/12 11:43:28;;;;;;;20.55;13.13;;;;;;;;;;5040675;28;20042;-85
2022/11/12 11:46:04;;;;;;;18.35;13.82;;;;;;;;;;5038928;28;20041;-86
2022/11/12 11:49:08;;;;;;;22.65;14.13;;;;;;;;;;5040341;28;20050;-86
2022/11/12 11:51:37;;;;;;;20.40;13.15;;;;;;;;;;4910559;29;20095;-86
2022/11/12 11:54:28;;;;;;;23.58;13.38;;;;;;;;;;4943192;29;20058;-86
2022/11/12 11:56:57;;;;;;;18.42;13.02;;;;;;;;;;4929607;29;20051;-86
2022/11/12 11:59:26;;;;;;;18.67;12.68;;;;;;;;;;4938928;29;20112;-84
2022/11/12 12:01:58;;;;;;;16.33;13.15;;;;;;;;;;4937609;29;20052;-85
2022/11/12 12:04:42;;;;;;;19.88;12.63;;;;;;;;;;4937332;29;20055;-86
2022/11/12 12:07:27;;;;;;;17.95;12.75;;;;;;;;;;4941180;29;20082;-85
2022/11/12 12:10:11;;;;;;;20.38;12.77;;;;;;;;;;4942240;29;20582;-86
2022/11/12 12:12:56;;;;;;;14.05;12.13;;;;;;;;;;4924549;29;20090;-85
2022/11/12 12:15:28;;;;;;;19.80;12.90;;;;;;;;;;4944697;29;20051;-85
2022/11/12 12:17:56;;;;;;;18.45;12.20;;;;;;;;;;4941104;29;20080;-85
2022/11/12 12:20:29;;;;;;;15.98;12.95;;;;;;;;;;4945614;29;20070;-86
2022/11/12 12:23:10;;;;;;;17.95;11.82;;;;;;;;;;5018450;28;20390;-85
2022/11/12 12:25:39;;;;;;;17.65;12.30;;;;;;;;;;5041282;28;20508;-85
2022/11/12 12:28:10;;;;;;;18.33;12.93;;;;;;;;;;5040763;28;20068;-85
2022/11/12 12:30:38;;;;;;;17.38;12.88;;;;;;;;;;5040311;28;21272;-85
2022/11/12 12:33:07;;;;;;;17.30;12.90;;;;;;;;;;5022104;28;20048;-85
2022/11/12 12:35:44;;;;;;;19.75;13.55;;;;;;;;;;5022734;28;20065;-84
2022/11/12 12:38:16;;;;;;;18.83;13.48;;;;;;;;;;5038390;28;20050;-85
2022/11/12 12:41:05;;;;;;;18.98;13.48;;;;;;;;;;5040947;28;20061;-84
2022/11/12 12:43:31;;;;;;;19.30;12.95;;;;;;;;;;5028785;28;20088;-84
2022/11/12 12:45:57;;;;;;;16.63;12.30;;;;;;;;;;5038044;28;20041;-85
2022/11/12 12:48:31;;;;;;;15.02;12.10;;;;;;;;;;5044820;28;20041;-84
2022/11/12 12:50:57;;;;;;;17.65;12.57;;;;;;;;;;5056757;28;20033;-84
2022/11/12 12:53:26;;;;;;;17.20;12.20;;;;;;;;;;5046032;28;20045;-84
2022/11/12 12:56:01;;;;;;;18.05;13.00;;;;;;;;;;5038612;28;20053;-84
2022/11/12 12:58:29;;;;;;;17.90;12.38;;;;;;;;;;5041174;28;20049;-84
2022/11/12 13:01:03;;;;;;;19.77;12.80;;;;;;;;;;5043429;28;20062;-84
2022/11/12 13:03:44;;;;;;;17.58;13.43;;;;;;;;;;5040910;28;20049;-85
2022/11/12 13:06:13;;;;;;;21.20;12.75;;;;;;;;;;5021553;28;20425;-85
2022/11/12 13:08:40;;;;;;;16.60;12.43;;;;;;;;;;5040462;28;20120;-85
2022/11/12 13:11:06;;;;;;;18.95;12.82;;;;;;;;;;5040731;28;20059;-85
2022/11/12 13:13:34;;;;;;;16.55;12.70;;;;;;;;;;5018802;28;20041;-85
2022/11/12 13:16:00;;;;;;;17.15;11.77;;;;;;;;;;5033802;28;20053;-85
2022/11/12 13:18:39;;;;;;;16.52;13.00;;;;;;;;;;5020585;28;20053;-85
2022/11/12 13:21:08;;;;;;;15.50;12.10;;;;;;;;;;5028935;28;20376;-85
2022/11/12 13:24:05;;;;;;;16.05;12.45;;;;;;;;;;5033857;28;20041;-84
2022/11/12 13:26:52;;;;;;;21.35;12.40;;;;;;;;;;5018648;28;20046;-86
2022/11/12 13:29:38;;;;;;;17.55;12.07;;;;;;;;;;5018157;28;20053;-84
2022/11/12 13:32:23;;;;;;;16.33;12.52;;;;;;;;;;5016546;28;20448;-87
2022/11/12 13:34:49;;;;;;;17.38;12.73;;;;;;;;;;5027567;28;20042;-86
2022/11/12 13:37:19;;;;;;;19.40;12.60;;;;;;;;;;5034342;28;20053;-86
2022/11/12 13:39:45;;;;;;;16.02;12.05;;;;;;;;;;5034961;28;20136;-85
2022/11/12 13:44:59;;;;;;;15.70;12.25;;;;;;;;;;5033896;28;20088;-85
2022/11/12 13:47:28;;;;;;;16.27;12.02;;;;;;;;;;5033008;28;20045;-85
2022/11/12 13:49:55;;;;;;;15.38;11.90;;;;;;;;;;5035179;28;20052;-86
2022/11/12 13:52:21;;;;;;;17.67;12.20;;;;;;;;;;5015178;28;20049;-86
2022/11/12 13:55:00;;;;;;;16.83;12.07;;;;;;;;;;5033739;28;20033;-85
2022/11/12 13:57:27;;;;;;;14.85;11.90;;;;;;;;;;5032711;28;20132;-85
2022/11/12 14:00:12;;;;;;;18.33;12.73;;;;;;;;;;5034027;28;20046;-86
2022/11/12 14:02:38;;;;;;;23.45;13.98;;;;;;;;;;5034213;28;20041;-85
2022/11/12 14:05:11;;;;;;;20.55;14.73;;;;;;;;;;5036414;28;20052;-85
2022/11/12 14:07:47;;;;;;;17.10;13.65;;;;;;;;;;5035383;28;20045;-86
2022/11/12 14:10:19;;;;;;;16.73;13.75;;;;;;;;;;5038735;28;20426;-86
2022/11/12 14:13:04;;;;;;;16.73;13.63;;;;;;;;;;5033873;28;20506;-85
2022/11/12 14:15:46;;;;;;;21.33;13.90;;;;;;;;;;5016486;28;20050;-85
2022/11/12 14:18:19;;;;;;;19.92;14.27;;;;;;;;;;5034912;28;20064;-85
2022/11/12 14:20:45;;;;;;;20.02;16.17;;;;;;;;;;5034659;28;20125;-86
2022/11/12 14:23:12;;;;;;;20.33;14.80;;;;;;;;;;5034530;28;20485;-85
2022/11/12 14:25:49;;;;;;;17.83;14.68;;;;;;;;;;5034134;28;20049;-85
2022/11/12 14:28:26;;;;;;;17.88;15.40;;;;;;;;;;5034851;28;20046;-85
2022/11/12 14:30:52;;;;;;;19.95;14.98;;;;;;;;;;5035073;28;20039;-86
2022/11/12 14:33:20;;;;;;;17.38;14.13;;;;;;;;;;5020075;28;20048;-85
2022/11/12 14:35:46;;;;;;;17.30;13.68;;;;;;;;;;5038687;28;20080;-85
2022/11/12 14:38:25;;;;;;;22.33;14.65;;;;;;;;;;5018538;28;20103;-86
2022/11/12 14:40:51;;;;;;;21.58;15.52;;;;;;;;;;5006294;28;20092;-86
2022/11/12 14:43:24;;;;;;;24.52;16.38;;;;;;;;;;5018612;28;20057;-86
2022/11/12 14:45:51;;;;;;;21.98;16.42;;;;;;;;;;5024111;28;20075;-87
2022/11/12 14:48:17;;;;;;;17.40;13.77;;;;;;;;;;5039549;28;20052;-86
2022/11/12 14:50:44;;;;;;;19.15;15.18;;;;;;;;;;5033487;28;20041;-86
2022/11/12 14:53:16;;;;;;;23.60;16.30;;;;;;;;;;5017979;28;20041;-86
2022/11/12 14:55:47;;;;;;;25.58;17.08;;;;;;;;;;5037270;28;20550;-86
2022/11/12 14:58:14;;;;;;;22.35;16.85;;;;;;;;;;5037862;28;20045;-86